sensor_id;sensor_type;location;lat;lon;timestamp;temperature;humidity
19261;DHT22;9764;48.114;11.670;2022-12-26T00:01:27;20.40;92.40
19261;DHT22;9764;48.114;11.670;2022-12-26T00:03:57;20.40;92.40
19261;DHT22;9764;48.114;11.670;2022-12-26T00:06:27;20.50;92.40
19261;DHT22;9764;48.114;11.670;2022-12-26T00:08:56;20.40;92.30
19261;DHT22;9764;48.114;11.670;2022-12-26T00:11:26;20.50;92.30
19261;DHT22;9764;48.114;11.670;2022-12-26T00:13:56;20.40;92.30
19261;DHT22;9764;48.114;11.670;2022-12-26T00:16:25;20.40;92.30
19261;DHT22;9764;48.114;11.670;2022-12-26T00:18:55;20.40;92.30
19261;DHT22;9764;48.114;11.670;2022-12-26T00:21:24;20.50;92.30
19261;DHT22;9764;48.114;11.670;2022-12-26T00:23:55;20.40;92.30
19261;DHT22;9764;48.114;11.670;2022-12-26T00:26:25;20.40;92.30
19261;DHT22;9764;48.114;11.670;2022-12-26T00:28:55;20.40;92.30
19261;DHT22;9764;48.114;11.670;2022-12-26T00:31:27;20.40;92.30
19261;DHT22;9764;48.114;11.670;2022-12-26T00:33:55;20.40;92.30
19261;DHT22;9764;48.114;11.670;2022-12-26T00:36:27;20.40;92.30
19261;DHT22;9764;48.114;11.670;2022-12-26T00:38:56;20.40;92.30
19261;DHT22;9764;48.114;11.670;2022-12-26T00:41:25;20.40;92.30
19261;DHT22;9764;48.114;11.670;2022-12-26T00:43:54;20.40;92.60
19261;DHT22;9764;48.114;11.670;2022-12-26T00:46:24;20.40;92.30
19261;DHT22;9764;48.114;11.670;2022-12-26T00:48:52;20.40;92.30
19261;DHT22;9764;48.114;11.670;2022-12-26T00:51:21;20.40;92.20
19261;DHT22;9764;48.114;11.670;2022-12-26T00:53:50;20.50;92.20
19261;DHT22;9764;48.114;11.670;2022-12-26T00:56:19;20.50;92.20
19261;DHT22;9764;48.114;11.670;2022-12-26T00:58:47;20.50;92.20
19261;DHT22;9764;48.114;11.670;2022-12-26T01:01:17;20.40;92.20
19261;DHT22;9764;48.114;11.670;2022-12-26T01:03:46;20.40;92.20
19261;DHT22;9764;48.114;11.670;2022-12-26T01:06:15;20.40;92.30
19261;DHT22;9764;48.114;11.670;2022-12-26T01:08:43;20.40;92.30
19261;DHT22;9764;48.114;11.670;2022-12-26T01:11:15;20.40;92.20
19261;DHT22;9764;48.114;11.670;2022-12-26T01:14:04;20.40;92.10
19261;DHT22;9764;48.114;11.670;2022-12-26T01:16:34;20.40;92.50
19261;DHT22;9764;48.114;11.670;2022-12-26T01:19:02;20.50;92.10
19261;DHT22;9764;48.114;11.670;2022-12-26T01:21:31;20.40;92.20
19261;DHT22;9764;48.114;11.670;2022-12-26T01:23:59;20.40;92.20
19261;DHT22;9764;48.114;11.670;2022-12-26T01:26:29;20.40;92.10
19261;DHT22;9764;48.114;11.670;2022-12-26T01:28:57;20.40;92.20
19261;DHT22;9764;48.114;11.670;2022-12-26T01:31:26;20.40;92.20
19261;DHT22;9764;48.114;11.670;2022-12-26T01:33:54;20.40;92.10
19261;DHT22;9764;48.114;11.670;2022-12-26T01:36:22;20.40;92.10
19261;DHT22;9764;48.114;11.670;2022-12-26T01:38:51;20.30;92.20
19261;DHT22;9764;48.114;11.670;2022-12-26T01:41:19;20.40;92.10
19261;DHT22;9764;48.114;11.670;2022-12-26T01:43:54;20.40;92.10
19261;DHT22;9764;48.114;11.670;2022-12-26T01:46:26;20.40;92.10
19261;DHT22;9764;48.114;11.670;2022-12-26T01:48:58;20.30;92.10
19261;DHT22;9764;48.114;11.670;2022-12-26T01:51:31;20.30;92.10
19261;DHT22;9764;48.114;11.670;2022-12-26T01:54:03;20.30;92.10
19261;DHT22;9764;48.114;11.670;2022-12-26T01:56:55;20.30;92.20
19261;DHT22;9764;48.114;11.670;2022-12-26T01:59:26;20.30;92.20
19261;DHT22;9764;48.114;11.670;2022-12-26T02:01:57;20.40;92.10
19261;DHT22;9764;48.114;11.670;2022-12-26T02:04:28;20.40;92.10
19261;DHT22;9764;48.114;11.670;2022-12-26T02:07:16;20.40;92.10
19261;DHT22;9764;48.114;11.670;2022-12-26T02:09:44;20.30;92.50
19261;DHT22;9764;48.114;11.670;2022-12-26T02:12:17;20.30;92.20
19261;DHT22;9764;48.114;11.670;2022-12-26T02:15:09;20.30;92.20
19261;DHT22;9764;48.114;11.670;2022-12-26T02:17:38;20.30;92.10
19261;DHT22;9764;48.114;11.670;2022-12-26T02:20:15;20.30;92.10
19261;DHT22;9764;48.114;11.670;2022-12-26T02:32:00;20.20;92.20
19261;DHT22;9764;48.114;11.670;2022-12-26T02:34:36;20.20;92.20
19261;DHT22;9764;48.114;11.670;2022-12-26T02:37:18;20.20;92.20
19261;DHT22;9764;48.114;11.670;2022-12-26T02:40:00;20.30;92.20
19261;DHT22;9764;48.114;11.670;2022-12-26T02:42:36;20.20;92.30
19261;DHT22;9764;48.114;11.670;2022-12-26T02:45:12;20.30;92.20
19261;DHT22;9764;48.114;11.670;2022-12-26T02:48:06;20.20;92.30
19261;DHT22;9764;48.114;11.670;2022-12-26T02:50:51;20.30;92.20
19261;DHT22;9764;48.114;11.670;2022-12-26T02:53:46;20.10;92.20
19261;DHT22;9764;48.114;11.670;2022-12-26T02:56:39;20.20;92.20
19261;DHT22;9764;48.114;11.670;2022-12-26T02:59:31;20.20;92.20
19261;DHT22;9764;48.114;11.670;2022-12-26T03:02:28;20.20;92.30
19261;DHT22;9764;48.114;11.670;2022-12-26T03:05:22;20.20;92.10
19261;DHT22;9764;48.114;11.670;2022-12-26T03:08:12;20.20;92.20
19261;DHT22;9764;48.114;11.670;2022-12-26T03:11:01;20.20;92.40
19261;DHT22;9764;48.114;11.670;2022-12-26T03:14:11;20.20;92.20
19261;DHT22;9764;48.114;11.670;2022-12-26T03:16:43;20.20;92.30
19261;DHT22;9764;48.114;11.670;2022-12-26T03:19:30;20.20;92.30
19261;DHT22;9764;48.114;11.670;2022-12-26T03:22:01;20.10;92.20
19261;DHT22;9764;48.114;11.670;2022-12-26T03:24:53;20.00;92.50
19261;DHT22;9764;48.114;11.670;2022-12-26T03:27:35;20.00;92.50
19261;DHT22;9764;48.114;11.670;2022-12-26T03:30:04;19.80;92.50
19261;DHT22;9764;48.114;11.670;2022-12-26T03:32:51;19.90;92.50
19261;DHT22;9764;48.114;11.670;2022-12-26T03:35:23;20.00;92.50
19261;DHT22;9764;48.114;11.670;2022-12-26T03:37:55;19.90;92.40
19261;DHT22;9764;48.114;11.670;2022-12-26T03:40:36;20.00;92.90
19261;DHT22;9764;48.114;11.670;2022-12-26T03:43:35;20.00;92.40
19261;DHT22;9764;48.114;11.670;2022-12-26T03:46:28;20.00;92.40
19261;DHT22;9764;48.114;11.670;2022-12-26T03:49:22;20.00;92.40
19261;DHT22;9764;48.114;11.670;2022-12-26T03:52:17;20.00;92.40
19261;DHT22;9764;48.114;11.670;2022-12-26T03:55:14;20.00;92.50
19261;DHT22;9764;48.114;11.670;2022-12-26T03:58:04;20.00;92.40
19261;DHT22;9764;48.114;11.670;2022-12-26T04:00:54;19.90;92.50
19261;DHT22;9764;48.114;11.670;2022-12-26T04:03:43;19.80;92.60
19261;DHT22;9764;48.114;11.670;2022-12-26T04:06:32;19.80;92.70
19261;DHT22;9764;48.114;11.670;2022-12-26T04:09:27;19.80;92.60
19261;DHT22;9764;48.114;11.670;2022-12-26T04:12:18;19.90;92.70
19261;DHT22;9764;48.114;11.670;2022-12-26T04:15:13;19.90;92.60
19261;DHT22;9764;48.114;11.670;2022-12-26T04:18:07;19.90;92.60
19261;DHT22;9764;48.114;11.670;2022-12-26T04:21:03;19.90;93.00
19261;DHT22;9764;48.114;11.670;2022-12-26T04:23:39;19.90;92.70
19261;DHT22;9764;48.114;11.670;2022-12-26T04:26:31;19.90;92.70
19261;DHT22;9764;48.114;11.670;2022-12-26T04:29:20;19.90;92.70
19261;DHT22;9764;48.114;11.670;2022-12-26T04:32:09;19.80;92.80
19261;DHT22;9764;48.114;11.670;2022-12-26T04:35:00;19.80;92.90
19261;DHT22;9764;48.114;11.670;2022-12-26T04:37:50;19.80;92.80
19261;DHT22;9764;48.114;11.670;2022-12-26T04:40:40;19.80;92.90
19261;DHT22;9764;48.114;11.670;2022-12-26T04:43:29;19.80;92.90
19261;DHT22;9764;48.114;11.670;2022-12-26T04:46:19;19.80;92.90
19261;DHT22;9764;48.114;11.670;2022-12-26T04:48:50;19.80;92.90
19261;DHT22;9764;48.114;11.670;2022-12-26T04:51:36;19.60;92.90
19261;DHT22;9764;48.114;11.670;2022-12-26T04:54:05;19.60;93.20
19261;DHT22;9764;48.114;11.670;2022-12-26T04:56:33;19.50;93.10
19261;DHT22;9764;48.114;11.670;2022-12-26T04:59:02;19.60;93.20
19261;DHT22;9764;48.114;11.670;2022-12-26T05:01:32;19.70;93.00
19261;DHT22;9764;48.114;11.670;2022-12-26T05:04:18;19.60;93.10
19261;DHT22;9764;48.114;11.670;2022-12-26T05:07:08;19.60;93.10
19261;DHT22;9764;48.114;11.670;2022-12-26T05:09:56;19.50;93.10
19261;DHT22;9764;48.114;11.670;2022-12-26T05:12:24;19.70;93.10
19261;DHT22;9764;48.114;11.670;2022-12-26T05:14:53;19.90;92.80
19261;DHT22;9764;48.114;11.670;2022-12-26T05:17:22;20.00;92.70
19261;DHT22;9764;48.114;11.670;2022-12-26T05:20:10;20.10;92.50
19261;DHT22;9764;48.114;11.670;2022-12-26T05:22:55;20.20;92.40
19261;DHT22;9764;48.114;11.670;2022-12-26T05:25:56;20.20;92.30
19261;DHT22;9764;48.114;11.670;2022-12-26T05:28:43;20.30;92.40
19261;DHT22;9764;48.114;11.670;2022-12-26T05:31:13;20.30;92.30
19261;DHT22;9764;48.114;11.670;2022-12-26T05:33:43;20.30;92.30
19261;DHT22;9764;48.114;11.670;2022-12-26T05:36:32;20.30;92.30
19261;DHT22;9764;48.114;11.670;2022-12-26T05:39:01;20.30;92.30
19261;DHT22;9764;48.114;11.670;2022-12-26T05:41:30;20.30;92.30
19261;DHT22;9764;48.114;11.670;2022-12-26T05:43:58;20.30;92.20
19261;DHT22;9764;48.114;11.670;2022-12-26T05:46:26;20.30;92.30
19261;DHT22;9764;48.114;11.670;2022-12-26T05:48:56;20.30;92.30
19261;DHT22;9764;48.114;11.670;2022-12-26T05:51:25;20.30;92.30
19261;DHT22;9764;48.114;11.670;2022-12-26T05:53:53;20.40;92.30
19261;DHT22;9764;48.114;11.670;2022-12-26T05:56:21;20.30;92.40
19261;DHT22;9764;48.114;11.670;2022-12-26T05:58:53;20.30;92.30
19261;DHT22;9764;48.114;11.670;2022-12-26T06:01:22;20.40;92.30
19261;DHT22;9764;48.114;11.670;2022-12-26T06:03:53;20.30;92.00
19261;DHT22;9764;48.114;11.670;2022-12-26T06:06:24;20.20;92.50
19261;DHT22;9764;48.114;11.670;2022-12-26T06:08:54;20.30;92.50
19261;DHT22;9764;48.114;11.670;2022-12-26T06:11:24;20.30;92.30
19261;DHT22;9764;48.114;11.670;2022-12-26T06:13:53;20.30;92.30
19261;DHT22;9764;48.114;11.670;2022-12-26T06:16:22;20.30;92.30
19261;DHT22;9764;48.114;11.670;2022-12-26T06:18:50;20.30;92.30
19261;DHT22;9764;48.114;11.670;2022-12-26T06:21:19;20.30;92.40
19261;DHT22;9764;48.114;11.670;2022-12-26T06:23:49;20.30;92.30
19261;DHT22;9764;48.114;11.670;2022-12-26T06:26:17;20.30;92.30
19261;DHT22;9764;48.114;11.670;2022-12-26T06:28:46;20.30;92.30
19261;DHT22;9764;48.114;11.670;2022-12-26T06:31:16;20.40;92.30
19261;DHT22;9764;48.114;11.670;2022-12-26T06:33:47;20.30;92.40
19261;DHT22;9764;48.114;11.670;2022-12-26T06:36:18;20.20;92.40
19261;DHT22;9764;48.114;11.670;2022-12-26T06:38:46;20.30;92.50
19261;DHT22;9764;48.114;11.670;2022-12-26T06:41:18;20.30;92.40
19261;DHT22;9764;48.114;11.670;2022-12-26T06:43:47;20.30;92.40
19261;DHT22;9764;48.114;11.670;2022-12-26T06:46:18;20.30;92.30
19261;DHT22;9764;48.114;11.670;2022-12-26T06:48:47;20.40;92.30
19261;DHT22;9764;48.114;11.670;2022-12-26T06:51:17;20.30;92.40
19261;DHT22;9764;48.114;11.670;2022-12-26T06:53:46;20.30;92.40
19261;DHT22;9764;48.114;11.670;2022-12-26T06:56:18;20.40;92.30
19261;DHT22;9764;48.114;11.670;2022-12-26T06:58:47;20.40;92.30
19261;DHT22;9764;48.114;11.670;2022-12-26T07:01:20;20.40;92.70
19261;DHT22;9764;48.114;11.670;2022-12-26T07:03:51;20.40;92.30
19261;DHT22;9764;48.114;11.670;2022-12-26T07:06:22;20.40;92.30
19261;DHT22;9764;48.114;11.670;2022-12-26T07:08:51;20.40;92.30
19261;DHT22;9764;48.114;11.670;2022-12-26T07:11:23;20.40;92.20
19261;DHT22;9764;48.114;11.670;2022-12-26T07:13:52;20.30;92.30
19261;DHT22;9764;48.114;11.670;2022-12-26T07:16:21;20.30;92.30
19261;DHT22;9764;48.114;11.670;2022-12-26T07:18:51;20.40;92.30
19261;DHT22;9764;48.114;11.670;2022-12-26T07:21:21;20.30;92.30
19261;DHT22;9764;48.114;11.670;2022-12-26T07:23:50;20.20;92.40
19261;DHT22;9764;48.114;11.670;2022-12-26T07:26:18;20.30;92.30
19261;DHT22;9764;48.114;11.670;2022-12-26T07:28:51;20.30;92.30
19261;DHT22;9764;48.114;11.670;2022-12-26T07:31:20;20.10;92.50
19261;DHT22;9764;48.114;11.670;2022-12-26T07:33:49;20.20;92.50
19261;DHT22;9764;48.114;11.670;2022-12-26T07:36:18;20.10;92.70
19261;DHT22;9764;48.114;11.670;2022-12-26T07:38:47;20.20;92.60
19261;DHT22;9764;48.114;11.670;2022-12-26T07:41:16;20.20;92.50
19261;DHT22;9764;48.114;11.670;2022-12-26T07:44:03;20.20;92.60
19261;DHT22;9764;48.114;11.670;2022-12-26T07:46:32;20.10;92.60
19261;DHT22;9764;48.114;11.670;2022-12-26T07:49:01;20.10;92.60
19261;DHT22;9764;48.114;11.670;2022-12-26T07:51:30;20.10;93.00
19261;DHT22;9764;48.114;11.670;2022-12-26T07:53:59;20.10;92.60
19261;DHT22;9764;48.114;11.670;2022-12-26T07:56:36;20.10;92.60
19261;DHT22;9764;48.114;11.670;2022-12-26T07:59:06;20.10;93.00
19261;DHT22;9764;48.114;11.670;2022-12-26T08:01:35;20.20;92.50
19261;DHT22;9764;48.114;11.670;2022-12-26T08:04:04;20.20;92.50
19261;DHT22;9764;48.114;11.670;2022-12-26T08:06:33;20.30;92.30
19261;DHT22;9764;48.114;11.670;2022-12-26T08:09:02;20.30;92.30
19261;DHT22;9764;48.114;11.670;2022-12-26T08:11:33;20.40;92.20
19261;DHT22;9764;48.114;11.670;2022-12-26T08:14:01;20.30;92.30
19261;DHT22;9764;48.114;11.670;2022-12-26T08:16:32;20.30;92.40
19261;DHT22;9764;48.114;11.670;2022-12-26T08:19:00;20.20;92.50
19261;DHT22;9764;48.114;11.670;2022-12-26T08:21:30;20.10;92.90
19261;DHT22;9764;48.114;11.670;2022-12-26T08:23:59;20.10;92.60
19261;DHT22;9764;48.114;11.670;2022-12-26T08:26:27;20.10;92.60
19261;DHT22;9764;48.114;11.670;2022-12-26T08:28:56;20.20;92.60
19261;DHT22;9764;48.114;11.670;2022-12-26T08:31:25;20.20;92.50
19261;DHT22;9764;48.114;11.670;2022-12-26T08:33:55;20.20;92.50
19261;DHT22;9764;48.114;11.670;2022-12-26T08:36:24;20.10;92.50
19261;DHT22;9764;48.114;11.670;2022-12-26T08:38:53;20.10;92.60
19261;DHT22;9764;48.114;11.670;2022-12-26T08:41:22;20.10;92.60
19261;DHT22;9764;48.114;11.670;2022-12-26T08:43:52;20.10;92.60
19261;DHT22;9764;48.114;11.670;2022-12-26T08:46:40;20.10;92.70
19261;DHT22;9764;48.114;11.670;2022-12-26T08:49:10;20.10;92.60
19261;DHT22;9764;48.114;11.670;2022-12-26T08:51:39;20.10;92.60
19261;DHT22;9764;48.114;11.670;2022-12-26T08:54:07;20.10;92.60
19261;DHT22;9764;48.114;11.670;2022-12-26T08:56:35;20.10;92.70
19261;DHT22;9764;48.114;11.670;2022-12-26T08:59:04;20.10;92.70
19261;DHT22;9764;48.114;11.670;2022-12-26T09:01:32;20.10;92.70
19261;DHT22;9764;48.114;11.670;2022-12-26T09:04:02;20.20;92.70
19261;DHT22;9764;48.114;11.670;2022-12-26T09:06:35;20.20;92.60
19261;DHT22;9764;48.114;11.670;2022-12-26T09:09:05;20.20;92.60
19261;DHT22;9764;48.114;11.670;2022-12-26T09:11:34;20.10;92.60
19261;DHT22;9764;48.114;11.670;2022-12-26T09:14:05;20.10;92.60
19261;DHT22;9764;48.114;11.670;2022-12-26T09:16:35;20.20;92.60
19261;DHT22;9764;48.114;11.670;2022-12-26T09:19:16;20.20;92.50
19261;DHT22;9764;48.114;11.670;2022-12-26T09:21:47;20.20;92.60
19261;DHT22;9764;48.114;11.670;2022-12-26T09:24:35;20.30;92.50
19261;DHT22;9764;48.114;11.670;2022-12-26T09:27:04;20.20;92.50
19261;DHT22;9764;48.114;11.670;2022-12-26T09:29:32;20.20;92.60
19261;DHT22;9764;48.114;11.670;2022-12-26T09:32:01;20.20;92.60
19261;DHT22;9764;48.114;11.670;2022-12-26T09:34:29;20.10;92.60
19261;DHT22;9764;48.114;11.670;2022-12-26T09:36:59;20.20;92.70
19261;DHT22;9764;48.114;11.670;2022-12-26T09:39:27;20.30;92.50
19261;DHT22;9764;48.114;11.670;2022-12-26T09:42:03;20.40;92.40
19261;DHT22;9764;48.114;11.670;2022-12-26T09:44:43;20.40;92.30
19261;DHT22;9764;48.114;11.670;2022-12-26T09:47:24;20.40;92.30
19261;DHT22;9764;48.114;11.670;2022-12-26T09:49:59;20.40;92.30
19261;DHT22;9764;48.114;11.670;2022-12-26T09:52:36;20.40;92.30
19261;DHT22;9764;48.114;11.670;2022-12-26T09:55:17;20.40;92.30
19261;DHT22;9764;48.114;11.670;2022-12-26T09:57:50;20.40;92.30
19261;DHT22;9764;48.114;11.670;2022-12-26T10:00:21;20.40;92.30
19261;DHT22;9764;48.114;11.670;2022-12-26T10:02:53;20.40;92.30
19261;DHT22;9764;48.114;11.670;2022-12-26T10:05:25;20.40;92.20
19261;DHT22;9764;48.114;11.670;2022-12-26T10:08:00;20.50;92.30
19261;DHT22;9764;48.114;11.670;2022-12-26T10:10:40;20.40;92.20
19261;DHT22;9764;48.114;11.670;2022-12-26T10:13:20;20.40;92.60
19261;DHT22;9764;48.114;11.670;2022-12-26T10:15:53;20.40;92.30
19261;DHT22;9764;48.114;11.670;2022-12-26T10:18:33;20.30;92.30
19261;DHT22;9764;48.114;11.670;2022-12-26T10:21:18;20.40;92.30
19261;DHT22;9764;48.114;11.670;2022-12-26T10:23:55;20.40;92.40
19261;DHT22;9764;48.114;11.670;2022-12-26T10:26:28;20.30;92.40
19261;DHT22;9764;48.114;11.670;2022-12-26T10:29:02;20.30;92.50
19261;DHT22;9764;48.114;11.670;2022-12-26T10:31:36;20.20;92.60
19261;DHT22;9764;48.114;11.670;2022-12-26T10:34:11;20.20;92.70
19261;DHT22;9764;48.114;11.670;2022-12-26T10:36:46;20.10;92.60
19261;DHT22;9764;48.114;11.670;2022-12-26T10:39:21;20.10;92.70
19261;DHT22;9764;48.114;11.670;2022-12-26T10:41:52;20.20;92.70
19261;DHT22;9764;48.114;11.670;2022-12-26T10:44:21;20.20;92.70
19261;DHT22;9764;48.114;11.670;2022-12-26T10:49:44;20.20;92.80
19261;DHT22;9764;48.114;11.670;2022-12-26T10:52:13;20.20;92.80
19261;DHT22;9764;48.114;11.670;2022-12-26T10:54:49;20.10;92.80
19261;DHT22;9764;48.114;11.670;2022-12-26T10:57:39;20.10;92.80
19261;DHT22;9764;48.114;11.670;2022-12-26T11:00:14;20.10;92.90
19261;DHT22;9764;48.114;11.670;2022-12-26T11:02:43;20.20;92.90
19261;DHT22;9764;48.114;11.670;2022-12-26T11:05:14;20.10;92.80
19261;DHT22;9764;48.114;11.670;2022-12-26T11:08:18;20.20;92.90
19261;DHT22;9764;48.114;11.670;2022-12-26T11:11:01;20.10;92.80
19261;DHT22;9764;48.114;11.670;2022-12-26T11:13:34;20.10;92.90
19261;DHT22;9764;48.114;11.670;2022-12-26T11:16:04;20.10;92.90
19261;DHT22;9764;48.114;11.670;2022-12-26T11:18:34;20.10;92.90
19261;DHT22;9764;48.114;11.670;2022-12-26T11:21:22;20.10;92.90
19261;DHT22;9764;48.114;11.670;2022-12-26T11:23:52;20.20;92.90
19261;DHT22;9764;48.114;11.670;2022-12-26T11:26:38;20.20;92.90
19261;DHT22;9764;48.114;11.670;2022-12-26T11:29:11;20.20;92.80
19261;DHT22;9764;48.114;11.670;2022-12-26T11:31:42;20.20;92.90
19261;DHT22;9764;48.114;11.670;2022-12-26T11:34:16;20.20;92.90
19261;DHT22;9764;48.114;11.670;2022-12-26T11:36:48;20.20;92.90
19261;DHT22;9764;48.114;11.670;2022-12-26T11:39:21;20.20;92.90
19261;DHT22;9764;48.114;11.670;2022-12-26T11:41:51;20.20;92.90
19261;DHT22;9764;48.114;11.670;2022-12-26T11:44:24;20.20;92.90
19261;DHT22;9764;48.114;11.670;2022-12-26T11:46:56;20.20;92.90
19261;DHT22;9764;48.114;11.670;2022-12-26T11:49:31;20.20;92.90
19261;DHT22;9764;48.114;11.670;2022-12-26T11:52:02;20.20;92.90
19261;DHT22;9764;48.114;11.670;2022-12-26T11:54:50;20.20;92.90
19261;DHT22;9764;48.114;11.670;2022-12-26T11:57:21;20.20;92.90
19261;DHT22;9764;48.114;11.670;2022-12-26T11:59:52;20.20;92.90
19261;DHT22;9764;48.114;11.670;2022-12-26T12:02:28;20.20;92.80
19261;DHT22;9764;48.114;11.670;2022-12-26T12:05:00;20.30;92.80
19261;DHT22;9764;48.114;11.670;2022-12-26T12:07:57;20.30;92.60
19261;DHT22;9764;48.114;11.670;2022-12-26T12:10:50;20.30;92.70
19261;DHT22;9764;48.114;11.670;2022-12-26T12:13:29;20.30;92.80
19261;DHT22;9764;48.114;11.670;2022-12-26T12:16:05;20.30;92.70
19261;DHT22;9764;48.114;11.670;2022-12-26T12:18:46;20.40;92.60
19261;DHT22;9764;48.114;11.670;2022-12-26T12:21:23;20.40;92.60
19261;DHT22;9764;48.114;11.670;2022-12-26T12:24:17;20.40;92.50
19261;DHT22;9764;48.114;11.670;2022-12-26T12:26:54;20.30;92.70
19261;DHT22;9764;48.114;11.670;2022-12-26T12:29:55;20.30;92.60
19261;DHT22;9764;48.114;11.670;2022-12-26T12:32:29;20.40;92.60
19261;DHT22;9764;48.114;11.670;2022-12-26T12:35:23;20.30;92.60
19261;DHT22;9764;48.114;11.670;2022-12-26T12:38:17;20.40;92.50
19261;DHT22;9764;48.114;11.670;2022-12-26T12:40:58;20.40;92.50
19261;DHT22;9764;48.114;11.670;2022-12-26T12:43:34;20.30;92.60
19261;DHT22;9764;48.114;11.670;2022-12-26T12:46:11;20.30;92.60
19261;DHT22;9764;48.114;11.670;2022-12-26T12:48:59;20.40;92.60
19261;DHT22;9764;48.114;11.670;2022-12-26T12:51:36;20.50;92.80
19261;DHT22;9764;48.114;11.670;2022-12-26T12:54:34;20.50;92.40
19261;DHT22;9764;48.114;11.670;2022-12-26T12:57:12;20.50;92.40
19261;DHT22;9764;48.114;11.670;2022-12-26T12:59:51;20.40;92.50
19261;DHT22;9764;48.114;11.670;2022-12-26T13:02:27;20.30;92.60
19261;DHT22;9764;48.114;11.670;2022-12-26T13:05:03;20.30;92.50
19261;DHT22;9764;48.114;11.670;2022-12-26T13:07:36;20.30;92.60
19261;DHT22;9764;48.114;11.670;2022-12-26T13:10:16;20.20;92.80
19261;DHT22;9764;48.114;11.670;2022-12-26T13:12:46;20.20;92.90
19261;DHT22;9764;48.114;11.670;2022-12-26T13:15:24;20.20;92.90
19261;DHT22;9764;48.114;11.670;2022-12-26T13:18:01;20.10;92.80
19261;DHT22;9764;48.114;11.670;2022-12-26T13:20:36;20.10;92.90
19261;DHT22;9764;48.114;11.670;2022-12-26T13:23:09;20.10;93.00
19261;DHT22;9764;48.114;11.670;2022-12-26T13:26:05;20.10;93.00
19261;DHT22;9764;48.114;11.670;2022-12-26T13:28:42;20.10;93.00
19261;DHT22;9764;48.114;11.670;2022-12-26T13:31:13;20.10;93.00
19261;DHT22;9764;48.114;11.670;2022-12-26T13:33:43;20.10;93.00
19261;DHT22;9764;48.114;11.670;2022-12-26T13:36:33;20.10;93.00
19261;DHT22;9764;48.114;11.670;2022-12-26T13:39:35;20.10;93.00
19261;DHT22;9764;48.114;11.670;2022-12-26T13:42:25;20.10;93.00
19261;DHT22;9764;48.114;11.670;2022-12-26T13:45:41;20.10;93.10
19261;DHT22;9764;48.114;11.670;2022-12-26T13:51:47;20.10;93.20
19261;DHT22;9764;48.114;11.670;2022-12-26T13:54:17;20.10;93.20
19261;DHT22;9764;48.114;11.670;2022-12-26T13:57:22;20.10;93.20
19261;DHT22;9764;48.114;11.670;2022-12-26T14:00:15;20.10;93.30
19261;DHT22;9764;48.114;11.670;2022-12-26T14:06:22;20.20;93.40
19261;DHT22;9764;48.114;11.670;2022-12-26T14:09:11;20.20;93.40
19261;DHT22;9764;48.114;11.670;2022-12-26T14:11:56;20.20;93.50
19261;DHT22;9764;48.114;11.670;2022-12-26T14:14:35;20.30;93.60
19261;DHT22;9764;48.114;11.670;2022-12-26T14:17:13;20.40;93.30
19261;DHT22;9764;48.114;11.670;2022-12-26T14:19:49;20.40;93.30
19261;DHT22;9764;48.114;11.670;2022-12-26T14:22:24;20.50;93.20
19261;DHT22;9764;48.114;11.670;2022-12-26T14:25:07;20.50;93.70
19261;DHT22;9764;48.114;11.670;2022-12-26T14:27:42;20.50;93.60
19261;DHT22;9764;48.114;11.670;2022-12-26T14:30:23;20.60;93.80
19261;DHT22;9764;48.114;11.670;2022-12-26T14:33:17;20.50;94.40
19261;DHT22;9764;48.114;11.670;2022-12-26T14:35:57;20.60;93.90
19261;DHT22;9764;48.114;11.670;2022-12-26T14:38:36;20.60;94.40
19261;DHT22;9764;48.114;11.670;2022-12-26T14:41:10;20.40;94.40
19261;DHT22;9764;48.114;11.670;2022-12-26T14:44:09;20.30;94.60
19261;DHT22;9764;48.114;11.670;2022-12-26T14:47:01;20.50;95.50
19261;DHT22;9764;48.114;11.670;2022-12-26T14:49:38;20.30;95.80
19261;DHT22;9764;48.114;11.670;2022-12-26T14:52:36;20.40;94.60
19261;DHT22;9764;48.114;11.670;2022-12-26T14:55:37;20.40;94.60
19261;DHT22;9764;48.114;11.670;2022-12-26T14:58:41;20.50;94.40
19261;DHT22;9764;48.114;11.670;2022-12-26T15:01:48;20.50;95.20
19261;DHT22;9764;48.114;11.670;2022-12-26T15:04:28;20.50;95.00
19261;DHT22;9764;48.114;11.670;2022-12-26T15:13:46;20.60;95.70
19261;DHT22;9764;48.114;11.670;2022-12-26T15:16:24;20.60;95.40
19261;DHT22;9764;48.114;11.670;2022-12-26T15:19:24;20.60;96.10
19261;DHT22;9764;48.114;11.670;2022-12-26T15:22:16;20.40;95.90
19261;DHT22;9764;48.114;11.670;2022-12-26T15:25:15;20.30;96.50
19261;DHT22;9764;48.114;11.670;2022-12-26T15:28:32;20.30;96.00
19261;DHT22;9764;48.114;11.670;2022-12-26T15:31:30;20.30;95.80
19261;DHT22;9764;48.114;11.670;2022-12-26T15:34:19;20.50;95.60
19261;DHT22;9764;48.114;11.670;2022-12-26T15:36:57;20.50;95.10
19261;DHT22;9764;48.114;11.670;2022-12-26T15:39:32;20.60;95.80
19261;DHT22;9764;48.114;11.670;2022-12-26T15:42:22;20.60;95.30
19261;DHT22;9764;48.114;11.670;2022-12-26T15:44:58;20.70;95.20
19261;DHT22;9764;48.114;11.670;2022-12-26T15:47:38;20.70;95.40
19261;DHT22;9764;48.114;11.670;2022-12-26T15:50:21;20.70;96.10
19261;DHT22;9764;48.114;11.670;2022-12-26T15:53:00;20.70;95.70
19261;DHT22;9764;48.114;11.670;2022-12-26T15:55:54;20.70;95.50
19261;DHT22;9764;48.114;11.670;2022-12-26T15:58:45;20.70;95.60
19261;DHT22;9764;48.114;11.670;2022-12-26T16:01:38;20.80;95.20
19261;DHT22;9764;48.114;11.670;2022-12-26T16:04:15;20.80;95.00
19261;DHT22;9764;48.114;11.670;2022-12-26T16:06:55;20.80;94.70
19261;DHT22;9764;48.114;11.670;2022-12-26T16:09:34;20.80;95.00
19261;DHT22;9764;48.114;11.670;2022-12-26T16:12:18;20.80;95.00
19261;DHT22;9764;48.114;11.670;2022-12-26T16:14:47;20.80;95.00
19261;DHT22;9764;48.114;11.670;2022-12-26T16:17:19;20.80;95.10
19261;DHT22;9764;48.114;11.670;2022-12-26T16:19:52;20.80;94.90
19261;DHT22;9764;48.114;11.670;2022-12-26T16:22:29;20.80;94.90
19261;DHT22;9764;48.114;11.670;2022-12-26T16:25:15;20.70;94.70
19261;DHT22;9764;48.114;11.670;2022-12-26T16:27:46;20.60;94.90
19261;DHT22;9764;48.114;11.670;2022-12-26T16:30:18;20.60;95.90
19261;DHT22;9764;48.114;11.670;2022-12-26T16:32:47;20.50;96.00
19261;DHT22;9764;48.114;11.670;2022-12-26T16:35:19;20.50;95.80
19261;DHT22;9764;48.114;11.670;2022-12-26T16:37:49;20.40;96.00
19261;DHT22;9764;48.114;11.670;2022-12-26T16:40:22;20.50;95.80
19261;DHT22;9764;48.114;11.670;2022-12-26T16:42:57;20.50;95.60
19261;DHT22;9764;48.114;11.670;2022-12-26T16:45:28;20.50;95.70
19261;DHT22;9764;48.114;11.670;2022-12-26T16:47:57;20.50;95.50
19261;DHT22;9764;48.114;11.670;2022-12-26T16:50:28;20.50;95.60
19261;DHT22;9764;48.114;11.670;2022-12-26T16:53:10;20.50;96.10
19261;DHT22;9764;48.114;11.670;2022-12-26T16:55:42;20.60;95.30
19261;DHT22;9764;48.114;11.670;2022-12-26T16:58:20;20.60;95.00